Time;durP1;ratioP1;P1;durP2;ratioP2;P2;SDS_P1;SDS_P2;PMS_P1;PMS_P2;Temp;Humidity;BMP_temperature;BMP_pressure;BME280_temperature;BME280_humidity;BME280_pressure;Samples;Min_cycle;Max_cycle;Signal;HPM_P1;HPM_P2
2023/09/24 00:01:45;;;;;;;13.40;8.18;;;;;;;;;;5178173;27;20054;-77
2023/09/24 00:04:31;;;;;;;23.15;8.80;;;;;;;;;;5177772;27;20022;-76
2023/09/24 00:07:17;;;;;;;16.35;9.27;;;;;;;;;;5178052;27;20454;-77
2023/09/24 00:10:03;;;;;;;14.77;8.38;;;;;;;;;;5177872;27;20037;-77
2023/09/24 00:12:49;;;;;;;15.70;7.97;;;;;;;;;;5177914;27;20052;-77
2023/09/24 00:15:35;;;;;;;14.65;8.63;;;;;;;;;;5178556;27;20018;-76
2023/09/24 00:18:20;;;;;;;15.20;9.55;;;;;;;;;;5177422;27;20029;-75
2023/09/24 00:21:06;;;;;;;12.95;8.88;;;;;;;;;;5178192;27;20025;-76
2023/09/24 00:23:51;;;;;;;15.18;8.35;;;;;;;;;;5177902;27;20109;-76
2023/09/24 00:26:38;;;;;;;16.17;8.90;;;;;;;;;;5177863;27;20010;-76
2023/09/24 00:29:24;;;;;;;18.63;9.18;;;;;;;;;;5177693;27;20023;-75
2023/09/24 00:32:10;;;;;;;16.25;9.35;;;;;;;;;;5178077;27;20033;-76
2023/09/24 00:34:55;;;;;;;18.58;9.40;;;;;;;;;;5177290;27;20022;-76
2023/09/24 00:37:41;;;;;;;15.70;9.60;;;;;;;;;;5177617;27;20014;-75
2023/09/24 00:40:26;;;;;;;15.80;9.48;;;;;;;;;;5177872;27;20078;-76
2023/09/24 00:43:28;;;;;;;13.57;8.88;;;;;;;;;;5177202;27;20034;-76
2023/09/24 00:46:14;;;;;;;14.52;9.95;;;;;;;;;;5176022;27;20014;-76
2023/09/24 00:49:00;;;;;;;17.75;9.48;;;;;;;;;;5177906;27;20038;-75
2023/09/24 00:51:49;;;;;;;14.93;9.93;;;;;;;;;;5178908;27;20010;-73
2023/09/24 00:54:34;;;;;;;16.42;10.32;;;;;;;;;;5180303;27;20022;-75
2023/09/24 00:57:20;;;;;;;17.58;9.77;;;;;;;;;;5179769;27;20510;-74
2023/09/24 01:00:14;;;;;;;18.83;10.35;;;;;;;;;;5178719;27;20029;-74
2023/09/24 01:03:00;;;;;;;13.05;10.05;;;;;;;;;;5177439;27;20026;-74
2023/09/24 01:05:49;;;;;;;17.23;10.10;;;;;;;;;;5176399;27;20053;-75
2023/09/24 01:08:35;;;;;;;16.80;10.18;;;;;;;;;;5177434;27;20019;-75
2023/09/24 01:11:21;;;;;;;17.80;10.10;;;;;;;;;;5177998;27;20018;-75
2023/09/24 01:14:07;;;;;;;17.15;10.52;;;;;;;;;;5177354;27;20110;-75
2023/09/24 01:16:53;;;;;;;19.10;10.65;;;;;;;;;;5176964;27;20030;-75
2023/09/24 01:19:39;;;;;;;14.80;10.57;;;;;;;;;;5176119;27;20018;-75
2023/09/24 01:22:24;;;;;;;13.75;9.40;;;;;;;;;;5176092;27;20029;-74
2023/09/24 01:25:11;;;;;;;15.98;10.10;;;;;;;;;;5176697;27;20042;-74
2023/09/24 01:27:58;;;;;;;19.23;10.45;;;;;;;;;;5176108;27;20022;-74
2023/09/24 01:30:43;;;;;;;22.52;10.95;;;;;;;;;;5176559;27;20511;-74
2023/09/24 01:33:31;;;;;;;17.20;11.10;;;;;;;;;;5176380;27;20460;-74
2023/09/24 01:36:19;;;;;;;15.63;10.13;;;;;;;;;;5176722;27;20041;-74
2023/09/24 01:39:04;;;;;;;18.70;10.50;;;;;;;;;;5176503;27;20054;-75
2023/09/24 01:41:51;;;;;;;15.10;10.13;;;;;;;;;;5175908;27;20129;-74
2023/09/24 01:44:36;;;;;;;19.80;11.52;;;;;;;;;;5176720;27;20063;-74
2023/09/24 01:47:22;;;;;;;15.63;10.27;;;;;;;;;;5175260;27;20010;-75
2023/09/24 01:50:08;;;;;;;19.48;10.85;;;;;;;;;;5176986;27;20046;-75
2023/09/24 01:53:00;;;;;;;16.80;10.88;;;;;;;;;;5176804;27;20025;-75
2023/09/24 01:55:45;;;;;;;19.48;11.15;;;;;;;;;;5177075;27;20022;-74
2023/09/24 01:58:31;;;;;;;17.45;11.20;;;;;;;;;;5177286;27;20026;-74
2023/09/24 02:01:17;;;;;;;15.90;10.00;;;;;;;;;;5175752;27;20018;-74
2023/09/24 02:04:03;;;;;;;18.42;10.77;;;;;;;;;;5178377;27;20022;-74
2023/09/24 02:06:48;;;;;;;18.45;10.65;;;;;;;;;;5183850;27;20049;-73
2023/09/24 02:09:35;;;;;;;15.52;9.98;;;;;;;;;;5175880;27;20007;-74
2023/09/24 02:12:21;;;;;;;15.55;10.35;;;;;;;;;;5174935;27;20026;-74
2023/09/24 02:15:10;;;;;;;15.32;10.10;;;;;;;;;;5175957;27;20026;-74
2023/09/24 02:17:56;;;;;;;16.02;9.90;;;;;;;;;;5175708;27;20025;-75
2023/09/24 02:20:46;;;;;;;15.88;9.93;;;;;;;;;;5175305;27;20064;-73
2023/09/24 02:23:32;;;;;;;16.00;10.98;;;;;;;;;;5175171;27;20432;-74
2023/09/24 02:26:18;;;;;;;15.77;10.90;;;;;;;;;;5176024;27;20078;-74
2023/09/24 02:29:03;;;;;;;16.33;10.88;;;;;;;;;;5176215;27;20072;-74
2023/09/24 02:31:52;;;;;;;18.70;11.65;;;;;;;;;;5176608;27;20106;-74
2023/09/24 02:34:37;;;;;;;19.10;11.30;;;;;;;;;;5177456;27;20468;-74
2023/09/24 02:37:27;;;;;;;18.52;11.13;;;;;;;;;;5180407;27;20033;-74
2023/09/24 02:40:23;;;;;;;19.30;11.38;;;;;;;;;;5179623;27;20347;-75
2023/09/24 02:43:09;;;;;;;17.67;10.98;;;;;;;;;;5179042;27;20018;-75
2023/09/24 02:45:56;;;;;;;16.73;10.98;;;;;;;;;;5180178;27;20021;-75
2023/09/24 02:48:42;;;;;;;17.05;10.82;;;;;;;;;;5179555;27;20097;-75
2023/09/24 02:51:28;;;;;;;13.70;10.38;;;;;;;;;;5179635;27;20061;-75
2023/09/24 02:54:14;;;;;;;15.20;11.00;;;;;;;;;;5179806;27;20076;-75
2023/09/24 02:56:59;;;;;;;14.43;10.32;;;;;;;;;;5179837;27;20090;-75
2023/09/24 02:59:46;;;;;;;16.13;11.15;;;;;;;;;;5178799;27;20019;-75
2023/09/24 03:02:32;;;;;;;16.13;11.35;;;;;;;;;;5179536;27;20097;-75
2023/09/24 03:05:20;;;;;;;18.45;11.77;;;;;;;;;;5180004;27;20026;-74
2023/09/24 03:08:09;;;;;;;16.67;11.05;;;;;;;;;;5179676;27;20029;-74
2023/09/24 03:10:55;;;;;;;18.77;10.82;;;;;;;;;;5179944;27;20025;-75
2023/09/24 03:13:41;;;;;;;16.40;10.85;;;;;;;;;;5180375;27;20022;-74
2023/09/24 03:16:28;;;;;;;19.23;11.55;;;;;;;;;;5178921;27;20026;-74
2023/09/24 03:19:14;;;;;;;19.90;10.98;;;;;;;;;;5178858;27;20470;-75
2023/09/24 03:22:00;;;;;;;14.00;10.48;;;;;;;;;;5179507;27;20018;-73
2023/09/24 03:24:47;;;;;;;17.50;10.88;;;;;;;;;;5179562;27;20097;-75
2023/09/24 03:27:33;;;;;;;17.38;10.82;;;;;;;;;;5178615;27;20018;-74
2023/09/24 03:30:19;;;;;;;16.70;9.98;;;;;;;;;;5178657;27;20014;-74
2023/09/24 03:33:04;;;;;;;20.30;9.60;;;;;;;;;;5179302;27;20137;-74
2023/09/24 03:35:50;;;;;;;12.48;10.30;;;;;;;;;;5179307;27;20455;-74
2023/09/24 03:38:36;;;;;;;15.85;9.63;;;;;;;;;;5178329;27;20045;-74
2023/09/24 03:41:23;;;;;;;18.58;9.75;;;;;;;;;;5178019;27;20087;-74
2023/09/24 03:44:09;;;;;;;15.70;10.45;;;;;;;;;;5178572;27;20059;-75
2023/09/24 03:46:54;;;;;;;13.93;9.32;;;;;;;;;;5178641;27;20023;-75
2023/09/24 03:49:41;;;;;;;15.55;9.75;;;;;;;;;;5178010;27;20207;-75
2023/09/24 03:52:26;;;;;;;14.95;9.95;;;;;;;;;;5179036;27;20025;-75
2023/09/24 03:55:12;;;;;;;17.05;10.10;;;;;;;;;;5177245;27;20444;-75
2023/09/24 03:57:58;;;;;;;15.60;10.43;;;;;;;;;;5179208;27;20022;-75
2023/09/24 04:00:44;;;;;;;18.77;10.85;;;;;;;;;;5178895;27;20018;-75
2023/09/24 04:03:30;;;;;;;16.23;10.27;;;;;;;;;;5178366;27;20028;-76
2023/09/24 04:06:17;;;;;;;17.50;10.07;;;;;;;;;;5179131;27;20044;-74
2023/09/24 04:09:02;;;;;;;16.60;11.07;;;;;;;;;;5177909;27;20023;-75
2023/09/24 04:11:48;;;;;;;15.30;9.88;;;;;;;;;;5178185;27;20025;-75
2023/09/24 04:14:34;;;;;;;16.02;10.18;;;;;;;;;;5177678;27;20019;-74
2023/09/24 04:17:20;;;;;;;14.38;9.82;;;;;;;;;;5177396;27;20462;-75
2023/09/24 04:20:11;;;;;;;17.58;10.10;;;;;;;;;;5178149;27;20022;-75
2023/09/24 04:22:57;;;;;;;18.25;10.57;;;;;;;;;;5178251;27;20018;-75
2023/09/24 04:25:43;;;;;;;15.48;9.27;;;;;;;;;;5178521;27;20090;-75
2023/09/24 04:28:28;;;;;;;14.80;9.23;;;;;;;;;;5177471;27;20026;-75
2023/09/24 04:31:14;;;;;;;12.38;9.52;;;;;;;;;;5177690;27;20018;-75
2023/09/24 04:33:59;;;;;;;14.43;9.40;;;;;;;;;;5177728;27;20365;-75
2023/09/24 04:36:45;;;;;;;16.48;8.80;;;;;;;;;;5178074;27;20055;-76
2023/09/24 04:39:31;;;;;;;15.40;9.07;;;;;;;;;;5177640;27;20023;-77
2023/09/24 04:42:16;;;;;;;15.75;9.27;;;;;;;;;;5177363;27;20018;-77
2023/09/24 04:45:03;;;;;;;15.68;8.80;;;;;;;;;;5177305;27;20362;-75
2023/09/24 04:47:49;;;;;;;13.80;8.75;;;;;;;;;;5176907;27;20046;-75
2023/09/24 04:50:35;;;;;;;17.25;9.40;;;;;;;;;;5177437;27;20114;-76
2023/09/24 04:53:20;;;;;;;13.68;8.60;;;;;;;;;;5177458;27;20074;-75
2023/09/24 04:56:07;;;;;;;19.25;8.77;;;;;;;;;;5176350;27;20030;-74
2023/09/24 04:58:52;;;;;;;12.57;8.73;;;;;;;;;;5177131;27;20328;-74
2023/09/24 05:01:38;;;;;;;16.60;8.80;;;;;;;;;;5178056;27;20487;-75
2023/09/24 05:04:23;;;;;;;14.55;8.82;;;;;;;;;;5181125;27;20029;-74
2023/09/24 05:07:09;;;;;;;14.73;9.25;;;;;;;;;;5182522;27;20028;-76
2023/09/24 05:09:55;;;;;;;13.48;8.57;;;;;;;;;;5179689;27;20416;-76
2023/09/24 05:12:42;;;;;;;12.10;8.05;;;;;;;;;;5179288;27;20053;-74
2023/09/24 05:15:27;;;;;;;10.95;7.72;;;;;;;;;;5184636;27;20034;-75
2023/09/24 05:18:13;;;;;;;14.60;7.60;;;;;;;;;;5176563;27;20033;-76
2023/09/24 05:20:58;;;;;;;13.63;7.47;;;;;;;;;;5175859;27;20128;-76
2023/09/24 05:23:45;;;;;;;15.60;7.75;;;;;;;;;;5178264;27;20436;-76
2023/09/24 05:26:30;;;;;;;13.55;8.65;;;;;;;;;;5175764;27;20336;-74
2023/09/24 05:29:16;;;;;;;13.65;7.95;;;;;;;;;;5176274;27;20075;-74
2023/09/24 05:32:02;;;;;;;15.43;8.23;;;;;;;;;;5176406;27;20028;-74
2023/09/24 05:34:52;;;;;;;12.63;7.97;;;;;;;;;;5175891;27;20023;-74
2023/09/24 05:37:39;;;;;;;15.63;8.35;;;;;;;;;;5176280;27;20041;-77
2023/09/24 05:40:24;;;;;;;12.27;8.38;;;;;;;;;;5176607;27;20026;-76
2023/09/24 05:43:10;;;;;;;13.23;8.57;;;;;;;;;;5175854;27;20503;-76
2023/09/24 05:45:56;;;;;;;17.05;9.50;;;;;;;;;;5176560;27;20064;-76
2023/09/24 05:48:41;;;;;;;15.35;8.52;;;;;;;;;;5175646;27;20018;-74
2023/09/24 05:51:27;;;;;;;15.90;9.40;;;;;;;;;;5175948;27;20048;-74
2023/09/24 05:54:13;;;;;;;17.88;8.73;;;;;;;;;;5176540;27;20050;-74
2023/09/24 05:57:00;;;;;;;18.55;9.25;;;;;;;;;;5176904;27;20046;-75
2023/09/24 05:59:45;;;;;;;13.32;9.00;;;;;;;;;;5175429;27;20386;-74
2023/09/24 06:02:31;;;;;;;18.45;9.73;;;;;;;;;;5176187;27;20019;-76
2023/09/24 06:05:16;;;;;;;13.05;8.77;;;;;;;;;;5175475;27;20474;-74
2023/09/24 06:08:04;;;;;;;18.65;9.52;;;;;;;;;;5174929;27;20052;-75
2023/09/24 06:10:52;;;;;;;14.73;9.35;;;;;;;;;;5175366;27;20014;-73
2023/09/24 06:13:38;;;;;;;13.52;8.40;;;;;;;;;;5175663;27;20435;-74
2023/09/24 06:16:23;;;;;;;12.95;8.13;;;;;;;;;;5175760;27;20022;-74
2023/09/24 06:19:09;;;;;;;14.82;8.50;;;;;;;;;;5160680;27;20101;-74
2023/09/24 06:21:54;;;;;;;16.48;8.65;;;;;;;;;;5175794;27;20033;-75
2023/09/24 06:24:40;;;;;;;13.93;7.65;;;;;;;;;;5175237;27;20468;-74
2023/09/24 06:27:26;;;;;;;15.25;8.10;;;;;;;;;;5175825;27;20057;-75
2023/09/24 06:30:11;;;;;;;15.18;7.88;;;;;;;;;;5175228;27;20014;-75
2023/09/24 06:32:57;;;;;;;15.55;7.25;;;;;;;;;;5175811;27;20014;-74
2023/09/24 06:35:42;;;;;;;11.80;7.40;;;;;;;;;;5174140;27;20027;-75
2023/09/24 06:38:28;;;;;;;13.02;7.68;;;;;;;;;;5175868;27;20037;-75
2023/09/24 06:41:14;;;;;;;14.52;7.50;;;;;;;;;;5174625;27;20031;-75
2023/09/24 06:43:59;;;;;;;11.30;7.30;;;;;;;;;;5174844;27;20054;-75
2023/09/24 06:46:45;;;;;;;13.43;7.30;;;;;;;;;;5173596;27;20014;-74
2023/09/24 06:49:31;;;;;;;10.70;7.20;;;;;;;;;;5174178;27;20070;-75
2023/09/24 06:52:16;;;;;;;10.43;7.10;;;;;;;;;;5175162;27;20046;-73
2023/09/24 06:55:02;;;;;;;8.77;7.03;;;;;;;;;;5175264;27;20029;-75
2023/09/24 06:57:48;;;;;;;11.05;7.20;;;;;;;;;;5175894;27;20034;-74
2023/09/24 07:00:34;;;;;;;11.80;7.00;;;;;;;;;;5174924;27;20037;-73
2023/09/24 07:03:19;;;;;;;12.73;7.28;;;;;;;;;;5174981;27;20028;-73
2023/09/24 07:06:06;;;;;;;8.18;6.20;;;;;;;;;;5174693;27;20420;-75
2023/09/24 07:08:52;;;;;;;15.80;7.10;;;;;;;;;;5175613;27;20032;-75
2023/09/24 07:11:38;;;;;;;12.52;7.20;;;;;;;;;;5174570;27;20116;-74
2023/09/24 07:14:23;;;;;;;11.57;6.28;;;;;;;;;;5174895;27;20030;-72
2023/09/24 07:17:09;;;;;;;10.63;6.93;;;;;;;;;;5174796;27;20108;-73
2023/09/24 07:19:55;;;;;;;13.18;7.43;;;;;;;;;;5175154;27;20033;-75
2023/09/24 07:22:40;;;;;;;12.15;6.82;;;;;;;;;;5179341;27;20018;-75
2023/09/24 07:25:26;;;;;;;11.18;6.50;;;;;;;;;;5173938;27;20026;-74
2023/09/24 07:28:12;;;;;;;15.65;6.88;;;;;;;;;;5176653;27;20336;-75
2023/09/24 07:30:57;;;;;;;11.98;6.82;;;;;;;;;;5177153;27;20014;-74
2023/09/24 07:33:44;;;;;;;9.77;7.00;;;;;;;;;;5176916;27;20025;-74
2023/09/24 07:36:32;;;;;;;13.50;7.10;;;;;;;;;;5176675;27;20085;-74
2023/09/24 07:39:18;;;;;;;14.40;6.50;;;;;;;;;;5176991;27;20439;-75
2023/09/24 07:42:04;;;;;;;11.63;6.50;;;;;;;;;;5177436;27;20184;-75
2023/09/24 07:44:49;;;;;;;10.80;6.75;;;;;;;;;;5178147;27;20093;-73
2023/09/24 07:47:35;;;;;;;14.55;6.25;;;;;;;;;;5178452;27;20316;-74
2023/09/24 07:50:20;;;;;;;11.20;6.43;;;;;;;;;;5177955;27;20050;-73
2023/09/24 07:53:06;;;;;;;11.82;6.20;;;;;;;;;;5177685;27;20025;-74
2023/09/24 07:55:53;;;;;;;8.85;6.45;;;;;;;;;;5177871;27;20033;-74
2023/09/24 07:58:39;;;;;;;13.15;6.65;;;;;;;;;;5178751;27;20018;-75
2023/09/24 08:01:26;;;;;;;12.20;6.22;;;;;;;;;;5177641;27;20459;-74
2023/09/24 08:04:12;;;;;;;10.63;5.75;;;;;;;;;;5176561;27;20328;-74
2023/09/24 08:06:58;;;;;;;8.52;6.28;;;;;;;;;;5179178;27;20011;-75
2023/09/24 08:09:43;;;;;;;10.85;5.95;;;;;;;;;;5181367;27;20022;-74
2023/09/24 08:12:29;;;;;;;7.82;5.72;;;;;;;;;;5178152;27;20066;-75
2023/09/24 08:15:15;;;;;;;13.93;6.03;;;;;;;;;;5178446;27;20026;-74
2023/09/24 08:18:08;;;;;;;10.43;5.75;;;;;;;;;;5178581;27;20040;-73
2023/09/24 08:20:54;;;;;;;11.30;5.68;;;;;;;;;;5177668;27;20098;-74
2023/09/24 08:23:40;;;;;;;16.33;6.10;;;;;;;;;;5178113;27;20435;-75
2023/09/24 08:26:25;;;;;;;13.43;5.75;;;;;;;;;;5177600;27;20022;-74
2023/09/24 08:29:11;;;;;;;13.70;6.05;;;;;;;;;;5178515;27;20053;-74
2023/09/24 08:31:57;;;;;;;10.23;5.63;;;;;;;;;;5177406;27;20060;-74
2023/09/24 08:34:43;;;;;;;8.32;5.35;;;;;;;;;;5177407;27;20499;-75
2023/09/24 08:37:29;;;;;;;8.82;5.47;;;;;;;;;;5176652;27;20466;-75
2023/09/24 08:40:17;;;;;;;8.13;5.30;;;;;;;;;;5176371;27;20022;-74
2023/09/24 08:43:10;;;;;;;12.65;5.60;;;;;;;;;;5177375;27;20034;-74
2023/09/24 08:45:55;;;;;;;13.45;5.50;;;;;;;;;;5176961;27;20407;-74
2023/09/24 08:48:41;;;;;;;10.15;6.00;;;;;;;;;;5177535;27;20025;-75
2023/09/24 08:51:27;;;;;;;9.13;5.60;;;;;;;;;;5177456;27;20086;-74
2023/09/24 08:54:13;;;;;;;8.35;5.30;;;;;;;;;;5177033;27;20018;-74
2023/09/24 08:56:59;;;;;;;16.38;5.50;;;;;;;;;;5176928;27;20029;-75
2023/09/24 08:59:44;;;;;;;9.30;5.90;;;;;;;;;;5176708;27;20102;-74
2023/09/24 09:02:30;;;;;;;9.50;5.45;;;;;;;;;;5176083;27;20029;-73
2023/09/24 09:05:22;;;;;;;10.00;5.90;;;;;;;;;;5176790;27;20105;-74
2023/09/24 09:08:08;;;;;;;11.88;5.68;;;;;;;;;;5176657;27;20079;-74
2023/09/24 09:10:54;;;;;;;9.48;6.28;;;;;;;;;;5176874;27;20099;-74
2023/09/24 09:13:42;;;;;;;10.18;6.22;;;;;;;;;;5178007;27;20328;-74
2023/09/24 09:16:28;;;;;;;10.27;5.90;;;;;;;;;;5178988;27;20021;-74
2023/09/24 09:19:13;;;;;;;7.28;5.50;;;;;;;;;;5178090;27;20424;-75
2023/09/24 09:22:19;;;;;;;9.63;5.80;;;;;;;;;;5177395;27;20074;-75
2023/09/24 09:25:06;;;;;;;11.70;6.38;;;;;;;;;;5176681;27;20054;-74
2023/09/24 09:27:51;;;;;;;14.30;6.10;;;;;;;;;;5177823;27;20018;-76
2023/09/24 09:30:37;;;;;;;20.65;6.05;;;;;;;;;;5175840;27;20090;-75
2023/09/24 09:33:29;;;;;;;9.27;5.53;;;;;;;;;;5176448;27;20177;-75
2023/09/24 09:36:27;;;;;;;12.98;5.60;;;;;;;;;;5177662;27;20022;-75
2023/09/24 09:39:12;;;;;;;8.85;5.70;;;;;;;;;;5163227;27;20014;-75
2023/09/24 09:41:58;;;;;;;12.15;5.90;;;;;;;;;;5156684;27;20531;-76
2023/09/24 09:44:45;;;;;;;12.63;5.72;;;;;;;;;;5146177;27;20109;-75
2023/09/24 09:47:34;;;;;;;14.25;6.20;;;;;;;;;;5146208;27;20026;-76
2023/09/24 09:50:21;;;;;;;11.65;5.60;;;;;;;;;;5150173;27;20354;-76
2023/09/24 09:53:09;;;;;;;10.00;5.80;;;;;;;;;;5140840;27;20018;-76
2023/09/24 09:55:56;;;;;;;10.35;5.68;;;;;;;;;;5163181;27;20022;-74
2023/09/24 09:58:46;;;;;;;10.88;5.78;;;;;;;;;;5152463;27;20027;-75
2023/09/24 10:01:32;;;;;;;14.27;5.88;;;;;;;;;;5156211;27;20389;-74
2023/09/24 10:04:18;;;;;;;12.93;6.18;;;;;;;;;;5156112;27;20022;-75
2023/09/24 10:07:04;;;;;;;13.50;5.75;;;;;;;;;;5157916;27;20031;-74
2023/09/24 10:09:50;;;;;;;9.70;5.78;;;;;;;;;;5157616;27;20046;-75
2023/09/24 10:12:36;;;;;;;14.10;5.75;;;;;;;;;;5141057;27;20064;-75
2023/09/24 10:15:30;;;;;;;11.32;5.57;;;;;;;;;;5148424;27;20019;-75
2023/09/24 10:18:19;;;;;;;14.07;5.70;;;;;;;;;;5151086;27;20172;-75
2023/09/24 10:21:05;;;;;;;11.20;5.22;;;;;;;;;;5161490;27;20333;-75
2023/09/24 10:23:50;;;;;;;13.63;5.00;;;;;;;;;;5156127;27;20105;-75
2023/09/24 10:26:45;;;;;;;14.35;5.50;;;;;;;;;;5160665;27;20026;-74
2023/09/24 10:29:46;;;;;;;16.70;6.25;;;;;;;;;;5155091;27;20042;-75
2023/09/24 10:32:41;;;;;;;15.70;5.32;;;;;;;;;;5145595;27;20106;-75
2023/09/24 10:35:27;;;;;;;14.15;5.70;;;;;;;;;;5147542;27;20077;-76
2023/09/24 10:38:12;;;;;;;11.07;5.60;;;;;;;;;;5143400;27;20026;-73
2023/09/24 10:41:07;;;;;;;16.92;5.63;;;;;;;;;;5164592;27;20019;-73
2023/09/24 10:44:11;;;;;;;14.85;5.72;;;;;;;;;;5155020;27;20022;-73
2023/09/24 10:46:57;;;;;;;19.98;5.82;;;;;;;;;;5166065;27;20082;-74
2023/09/24 10:49:42;;;;;;;13.90;6.07;;;;;;;;;;5165692;27;20051;-74
2023/09/24 10:52:29;;;;;;;19.13;5.80;;;;;;;;;;5166314;27;20030;-74
2023/09/24 10:55:16;;;;;;;15.50;5.60;;;;;;;;;;5173458;27;20269;-74
2023/09/24 10:58:02;;;;;;;18.45;5.82;;;;;;;;;;5163212;27;20034;-74
2023/09/24 11:00:52;;;;;;;13.70;5.03;;;;;;;;;;5156771;27;20101;-73
2023/09/24 11:03:37;;;;;;;16.17;5.65;;;;;;;;;;5157091;27;20654;-74
2023/09/24 11:06:32;;;;;;;13.63;5.53;;;;;;;;;;5179269;27;20019;-74
2023/09/24 11:09:19;;;;;;;13.57;5.72;;;;;;;;;;5180299;27;20074;-74
2023/09/24 11:12:08;;;;;;;14.20;5.50;;;;;;;;;;5162802;27;20022;-73
2023/09/24 11:14:57;;;;;;;15.32;5.30;;;;;;;;;;5163908;27;20010;-74
2023/09/24 11:17:44;;;;;;;17.98;5.68;;;;;;;;;;5176398;27;20065;-75
2023/09/24 11:20:31;;;;;;;13.90;5.32;;;;;;;;;;5165399;27;20038;-75
2023/09/24 11:23:17;;;;;;;16.13;5.03;;;;;;;;;;5180970;27;20022;-74
2023/09/24 11:26:03;;;;;;;17.80;5.47;;;;;;;;;;5175647;27;20034;-73
2023/09/24 11:28:48;;;;;;;17.85;5.22;;;;;;;;;;5170042;27;20126;-74
2023/09/24 11:31:34;;;;;;;14.35;5.88;;;;;;;;;;5182369;27;20308;-75
2023/09/24 11:34:22;;;;;;;17.02;5.38;;;;;;;;;;5165966;27;20033;-75
2023/09/24 11:37:10;;;;;;;16.92;5.07;;;;;;;;;;5153972;27;20470;-75
2023/09/24 11:39:55;;;;;;;17.52;5.18;;;;;;;;;;5153096;27;20371;-76
2023/09/24 11:42:51;;;;;;;12.68;5.60;;;;;;;;;;5164877;27;20099;-75
2023/09/24 11:45:50;;;;;;;14.52;5.32;;;;;;;;;;5167638;27;20082;-74
2023/09/24 11:48:36;;;;;;;20.75;5.63;;;;;;;;;;5166630;27;20548;-76
2023/09/24 11:51:22;;;;;;;13.20;5.22;;;;;;;;;;5166633;27;20157;-75
2023/09/24 11:54:12;;;;;;;17.60;5.13;;;;;;;;;;5166199;27;20033;-75
2023/09/24 11:56:57;;;;;;;10.13;4.95;;;;;;;;;;5162311;27;20033;-76
2023/09/24 11:59:43;;;;;;;16.38;5.28;;;;;;;;;;5156579;27;20054;-75
2023/09/24 12:02:28;;;;;;;13.38;5.43;;;;;;;;;;5177802;27;20087;-75
2023/09/24 12:05:16;;;;;;;11.90;4.85;;;;;;;;;;5173913;27;20033;-75
2023/09/24 12:08:03;;;;;;;16.70;4.90;;;;;;;;;;5174144;27;20022;-76
2023/09/24 12:10:52;;;;;;;11.70;4.95;;;;;;;;;;5176548;27;20029;-76
2023/09/24 12:13:43;;;;;;;14.20;5.07;;;;;;;;;;5155741;27;20030;-76
2023/09/24 12:16:29;;;;;;;16.90;4.95;;;;;;;;;;5170350;27;20474;-75
2023/09/24 12:19:17;;;;;;;16.25;4.97;;;;;;;;;;5171940;27;20035;-76
2023/09/24 12:22:03;;;;;;;11.68;4.90;;;;;;;;;;5171058;27;20109;-75
2023/09/24 12:24:48;;;;;;;12.85;5.03;;;;;;;;;;5172458;27;20022;-75
2023/09/24 12:27:34;;;;;;;11.68;4.85;;;;;;;;;;5176833;27;20522;-76
2023/09/24 12:30:20;;;;;;;17.02;4.93;;;;;;;;;;5169162;27;20014;-76
2023/09/24 12:33:06;;;;;;;13.57;4.72;;;;;;;;;;5188684;27;20029;-75
2023/09/24 12:35:54;;;;;;;13.27;4.72;;;;;;;;;;5158431;27;20549;-73
2023/09/24 12:38:40;;;;;;;13.13;5.00;;;;;;;;;;5161085;27;20023;-74
2023/09/24 12:41:26;;;;;;;17.65;4.85;;;;;;;;;;5147758;27;20022;-75
2023/09/24 12:44:11;;;;;;;13.32;4.60;;;;;;;;;;5167659;27;20026;-74
2023/09/24 12:46:58;;;;;;;14.45;5.15;;;;;;;;;;5157576;27;20040;-72
2023/09/24 12:49:43;;;;;;;16.38;5.40;;;;;;;;;;5157408;27;20046;-71
2023/09/24 12:52:34;;;;;;;16.00;5.05;;;;;;;;;;5171748;27;20081;-72
2023/09/24 12:55:22;;;;;;;17.70;5.22;;;;;;;;;;5163944;27;20427;-72
2023/09/24 12:58:08;;;;;;;12.63;4.85;;;;;;;;;;5138754;27;20034;-73
2023/09/24 13:00:53;;;;;;;16.30;5.07;;;;;;;;;;5159840;27;20054;-72
2023/09/24 13:03:39;;;;;;;10.77;5.25;;;;;;;;;;5168294;27;20363;-73
2023/09/24 13:06:27;;;;;;;17.80;4.68;;;;;;;;;;5160541;27;20030;-72
2023/09/24 13:09:17;;;;;;;17.60;5.28;;;;;;;;;;5165080;27;20026;-73
2023/09/24 13:12:02;;;;;;;13.23;4.68;;;;;;;;;;5163586;27;20046;-72
2023/09/24 13:14:51;;;;;;;23.20;5.13;;;;;;;;;;5140407;27;20467;-73
2023/09/24 13:17:37;;;;;;;17.73;4.95;;;;;;;;;;5144542;27;20015;-74
2023/09/24 13:20:23;;;;;;;15.07;4.38;;;;;;;;;;5168890;27;20026;-72
2023/09/24 13:23:08;;;;;;;12.68;4.28;;;;;;;;;;5161904;27;20053;-71
2023/09/24 13:25:54;;;;;;;20.67;4.45;;;;;;;;;;5152835;27;20036;-72
2023/09/24 13:28:40;;;;;;;17.42;4.65;;;;;;;;;;5156140;27;20071;-71
2023/09/24 13:31:26;;;;;;;27.65;5.25;;;;;;;;;;5168543;27;20451;-71
2023/09/24 13:34:15;;;;;;;21.58;4.93;;;;;;;;;;5151041;27;20400;-73
2023/09/24 13:37:00;;;;;;;20.92;5.07;;;;;;;;;;5163603;27;20097;-74
2023/09/24 13:39:46;;;;;;;13.73;4.95;;;;;;;;;;5130345;27;20105;-72
2023/09/24 13:42:32;;;;;;;27.15;6.10;;;;;;;;;;5147240;27;20338;-71
2023/09/24 13:45:18;;;;;;;29.45;5.63;;;;;;;;;;5159069;27;20049;-71
2023/09/24 13:48:04;;;;;;;31.48;5.97;;;;;;;;;;5163539;27;20078;-72
2023/09/24 13:50:50;;;;;;;20.90;4.93;;;;;;;;;;5146560;27;20054;-72
2023/09/24 13:53:35;;;;;;;19.27;4.80;;;;;;;;;;5152843;27;20026;-72
2023/09/24 13:56:21;;;;;;;21.08;5.28;;;;;;;;;;5167651;27;20022;-71
2023/09/24 13:59:07;;;;;;;15.35;4.47;;;;;;;;;;5163482;27;20363;-71
2023/09/24 14:01:52;;;;;;;14.05;4.30;;;;;;;;;;5165546;27;20033;-71
2023/09/24 14:04:38;;;;;;;17.38;4.53;;;;;;;;;;5147959;27;20033;-72
2023/09/24 14:07:27;;;;;;;19.50;4.35;;;;;;;;;;5159642;27;20022;-71
2023/09/24 14:13:16;;;;;;;21.27;5.18;;;;;;;;;;5147311;27;20077;-72
2023/09/24 14:16:02;;;;;;;13.45;4.65;;;;;;;;;;5157069;27;20018;-71
2023/09/24 14:18:51;;;;;;;12.93;4.22;;;;;;;;;;5149677;27;20019;-70
2023/09/24 14:21:37;;;;;;;33.72;4.88;;;;;;;;;;5156652;27;20021;-70
2023/09/24 14:24:23;;;;;;;23.15;5.03;;;;;;;;;;5159691;27;20034;-71
2023/09/24 14:27:08;;;;;;;19.83;4.95;;;;;;;;;;5141278;27;20010;-72
2023/09/24 14:29:54;;;;;;;12.80;4.10;;;;;;;;;;5145281;27;20034;-71
2023/09/24 14:32:40;;;;;;;13.50;4.70;;;;;;;;;;5164699;27;20019;-71
2023/09/24 14:35:28;;;;;;;19.05;5.32;;;;;;;;;;5151650;27;20648;-74
2023/09/24 14:38:17;;;;;;;33.20;5.90;;;;;;;;;;5157858;27;20467;-74
2023/09/24 14:41:03;;;;;;;26.38;5.70;;;;;;;;;;5166204;27;20101;-72
2023/09/24 14:43:48;;;;;;;17.55;4.55;;;;;;;;;;5159165;27;20340;-71
2023/09/24 14:46:34;;;;;;;28.95;5.43;;;;;;;;;;5151646;27;20046;-72
2023/09/24 14:49:20;;;;;;;23.30;5.10;;;;;;;;;;5160546;27;20058;-72
2023/09/24 14:52:06;;;;;;;17.88;4.65;;;;;;;;;;5141565;27;20014;-72
2023/09/24 14:54:51;;;;;;;15.40;5.22;;;;;;;;;;5162343;27;20026;-71
2023/09/24 14:57:37;;;;;;;19.33;5.60;;;;;;;;;;5161660;27;20029;-71
2023/09/24 15:00:22;;;;;;;41.10;7.10;;;;;;;;;;5157364;27;20027;-71
2023/09/24 15:03:08;;;;;;;23.00;5.35;;;;;;;;;;5165507;27;20022;-72
2023/09/24 15:05:54;;;;;;;14.15;5.25;;;;;;;;;;5148029;27;20053;-72
2023/09/24 15:08:40;;;;;;;13.50;4.82;;;;;;;;;;5148331;27;20071;-74
2023/09/24 15:11:25;;;;;;;17.35;4.25;;;;;;;;;;5150554;27;20026;-72
2023/09/24 15:14:11;;;;;;;10.30;4.43;;;;;;;;;;5152004;27;20087;-70
2023/09/24 15:16:56;;;;;;;20.20;5.07;;;;;;;;;;5148335;27;20361;-73
2023/09/24 15:19:42;;;;;;;38.63;7.05;;;;;;;;;;5143045;27;20463;-73
2023/09/24 15:22:28;;;;;;;58.78;7.38;;;;;;;;;;5157771;27;20454;-72
2023/09/24 15:25:13;;;;;;;17.15;4.70;;;;;;;;;;5166653;27;20443;-71
2023/09/24 15:27:59;;;;;;;14.35;4.35;;;;;;;;;;5157425;27;20040;-71
2023/09/24 15:30:48;;;;;;;20.55;5.28;;;;;;;;;;5131402;27;20023;-71
2023/09/24 15:33:34;;;;;;;19.90;5.10;;;;;;;;;;5146735;27;20351;-72
2023/09/24 15:36:19;;;;;;;19.98;5.28;;;;;;;;;;5165886;27;20022;-71
2023/09/24 15:39:05;;;;;;;51.78;7.22;;;;;;;;;;5163995;27;20033;-72
2023/09/24 15:41:53;;;;;;;41.47;5.88;;;;;;;;;;5160613;27;20356;-72
2023/09/24 15:44:39;;;;;;;77.82;7.65;;;;;;;;;;5168528;27;20414;-70
2023/09/24 15:47:24;;;;;;;33.88;5.97;;;;;;;;;;5140239;27;20416;-72
2023/09/24 15:50:10;;;;;;;21.77;5.00;;;;;;;;;;5168778;27;20452;-71
2023/09/24 15:52:56;;;;;;;23.98;6.15;;;;;;;;;;5169041;27;20053;-71
2023/09/24 15:55:44;;;;;;;41.33;6.03;;;;;;;;;;5166097;27;20022;-71
2023/09/24 15:58:29;;;;;;;45.00;6.38;;;;;;;;;;5163765;27;20498;-73
2023/09/24 16:01:15;;;;;;;18.38;5.07;;;;;;;;;;5170069;27;20022;-74
2023/09/24 16:04:01;;;;;;;15.82;4.55;;;;;;;;;;5159982;27;20122;-71
2023/09/24 16:06:46;;;;;;;13.57;4.47;;;;;;;;;;5158904;27;20095;-72
2023/09/24 16:09:32;;;;;;;29.17;5.53;;;;;;;;;;5162436;27;20014;-73
2023/09/24 16:12:17;;;;;;;40.03;6.53;;;;;;;;;;5166044;27;20082;-72
2023/09/24 16:15:03;;;;;;;41.90;6.03;;;;;;;;;;5166495;27;20030;-73
2023/09/24 16:17:49;;;;;;;23.95;5.63;;;;;;;;;;5146259;27;20201;-71
2023/09/24 16:20:35;;;;;;;14.45;4.70;;;;;;;;;;5165542;27;20061;-70
2023/09/24 16:23:20;;;;;;;15.77;4.65;;;;;;;;;;5166375;27;20439;-72
2023/09/24 16:26:09;;;;;;;15.30;4.97;;;;;;;;;;5166412;27;20030;-72